Farmington Hills, MI

9:36 AM EDT on March 27, 2015 (GMT -0400)
Kimberly North | | Change Station
CLOSE
Current Station
Personal Weather Station
Location: West Bloomfield Township, MI
Elevation: 899 ft
Nearby Weather Stations

Elev 899 ft 42.54 °N, 83.35 °W | Updated 12 minutes ago

Overcast
Overcast
23.2 °F
Feels Like 19 °F
N
3.2
Wind Variable Wind from South

Today
High -- | Low -- °F
--% Chance of Precip.
Yesterday
High -- | Low -- °F
Precip. -- in
7:25 AM 7:53 PM
First Quarter, 52% visible
Pressure 30.01 in
Visibility 8.0 miles
Clouds Few 2100 ft
Overcast 4200 ft
Windchill 19 °F
Dew Point 14 °F
Humidity 67%
Rainfall 0.00 in
Snow Depth Not available.
UV 0 out of 12
Pollen 3.20 out of 12
Air Quality Not available.
Flu Activity Not available.
METAR KPTK 271253Z 33010KT 8SM -SN FEW021 OVC042 M07/M11 A2997 RMK AO2 SLP161 P0000 T10671111

More Conditions Fewer Conditions

Pressure 30.01 in
Visibility 8.0 miles
Clouds Few 2100 ft
Overcast 4200 ft
Windchill 19 °F
Dew Point 14 °F
Humidity 67%
Rainfall 0.00 in
Snow Depth Not available.
UV 0 out of 12
Pollen 3.20 out of 12
Air Quality Not available.
Flu Activity Not available.
METAR KPTK 271253Z 33010KT 8SM -SN FEW021 OVC042 M07/M11 A2997 RMK AO2 SLP161 P0000 T10671111

More Conditions Fewer Conditions

10-Day Weather Forecast

Almanac

Astronomy

Mar. 27, 2015 Rise Set
Actual Time
Civil Twilight
Nautical Twilight
Astronomical Twilight
Moon
Length of Visible Light
Length of Day
Tomorrow will be .
, % of the Moon is Illuminated

Today's Extremes

State Highs State Lows

Community

WunderPhotos

Upload Photos

1,808,732 photos uploaded!

WunderBlogs® & News

Nearby

Air Quality

  Air Quality AQ Index Pollutant
Not available.

Snow Depth

Station Depth Elevation

Earthquake Activity

City Distance Mag. Time & Date
Minimum magnitude displayed is 2.5.

Coastal Water Temperatures

Place Temperature

Stations

Nearby Weather Stations

Station Location Temp. Windchill Dew Point Humidity Wind Precip. Elev Updated Type